OINN 
Noshahr Airport
Iran 
ICAOIATAStatus
OINNNSHOperational
LatitudeLongitude
36° 39' 47" N51° 27' 52" E
36.66330051.464699
Local Time (DST+5)UTC (GMT+4)
04-24-2014 06:35 am04-24-2014 02:05
Sunrise-SunsetLocalUTC
Begin Civil Twilight05:49 am01:19
Sunrise06:17 am01:47
Sunset07:47 pm15:17
End Civil Twilight08:14 pm15:44

Current Weather

METARObservedFlight Conditions

OINN 240100Z 18004KT CAVOK 15/14 Q1010

Thu, Apr 24, 2014 @ 01:00 UTC(Z)

(1 Hour, 5 Minutes ago)

VFR

(Visual Flight Rules)

WindVisibilityCloudsConditions
180° at 4 knots (7 kph)
10 km or more
  • Clear skies
  • No significant weather
TemperaturesReadingsPrecipitation
Current Temp15°C (59°F)
Dewpoint14°C (57°F)
Humidity94%
Altimeter29.82"Hg
Sea Level Pressure1010mb
None Recorded

Additional weather within a 92.6km radius of OINN

Location METAR
OINR

75km W (292°)

1 hour, 5 minutes ago
VFR VFR    MVFR MVFR    IFR IFR    LIFR LIFR    Unknown Unknown

Previous 24 hour Weather Graphs

  Loading...

CheckWX.com is intended as a tool to help pilots better visualize weather data.   It is not intended as a substitute for an official weather briefing obtained from a Flight Service Station.
CheckWX.com does not meet the FAA requirements for an official pre-flight weather briefing.   Therefore, it's important that pilots still call and obtain an official FSS pre-flight weather briefing.